Airport View

Enter AWOS ICAO identifier for current METAR.

ex. KFNL

21 Sep 2019 01:23

Frequency: 135.75

Phone: 907-587-5654

Other Area AWOS: PFYU

TAF CYOC 201741Z 2018/2101 05007KT P6SM FEW013 SCT030 BKN070 TEMPO 2018/2022 BKN030 OVC060 FM202200 07008KT P6SM FEW030 BKN150 RMK NXT FCST WILL BE ISSUED AT 211445Z